Time;durP1;ratioP1;P1;durP2;ratioP2;P2;SDS_P1;SDS_P2;PMS_P1;PMS_P2;Temp;Humidity;BMP_temperature;BMP_pressure;BME280_temperature;BME280_humidity;BME280_pressure;Samples;Min_cycle;Max_cycle;Signal;HPM_P1;HPM_P2
2022/07/04 00:01:10;;;;;;;10.52;6.15;;;;;;;18.85;63.40;101052.09;5053404;28;19913;-78
2022/07/04 00:03:35;;;;;;;9.15;6.53;;;;;;;18.83;62.74;101025.03;5033923;28;20455;-77
2022/07/04 00:06:00;;;;;;;;;;;;;;;18.96;62.54;101035.09;5036126;28;20539;-76
2022/07/04 00:08:28;;;;;;;13.05;6.93;;;;;;;18.96;62.18;101038.69;5054621;28;19908;-76
2022/07/04 00:10:55;;;;;;;17.65;7.32;;;;;;;18.94;62.06;101035.34;5071770;28;20434;-77
2022/07/04 00:13:20;;;;;;;11.02;7.05;;;;;;;18.94;62.20;101037.19;5038557;28;20040;-75
2022/07/04 00:15:46;;;;;;;;;;;;;;;18.96;61.98;101043.28;5073922;28;20036;-77
2022/07/04 00:18:11;;;;;;;20.55;7.82;;;;;;;18.87;62.24;101039.06;5053145;28;19921;-78
2022/07/04 00:20:37;;;;;;;;;;;;;;;18.97;61.55;101034.06;5055800;28;20094;-77
2022/07/04 00:23:02;;;;;;;;;;;;;;;18.74;62.13;101035.25;5038392;28;19955;-77
2022/07/04 00:25:27;;;;;;;;;;;;;;;18.85;62.06;101033.84;5054456;28;19920;-76
2022/07/04 00:27:53;;;;;;;21.33;7.97;;;;;;;18.66;62.43;101013.66;5054626;28;20010;-76
2022/07/04 00:30:18;;;;;;;;;;;;;;;18.75;62.26;101033.34;5052242;28;20099;-77
2022/07/04 00:32:44;;;;;;;;;;;;;;;18.81;62.22;101023.56;5049475;28;19912;-77
2022/07/04 00:35:09;;;;;;;12.90;7.53;;;;;;;18.77;62.38;101017.69;5073756;28;19934;-76
2022/07/04 00:37:34;;;;;;;;;;;;;;;18.75;62.87;101017.00;5073279;28;20037;-77
2022/07/04 00:40:00;;;;;;;;;;;;;;;18.69;62.54;101021.41;5068623;28;19908;-77
2022/07/04 00:42:28;;;;;;;15.30;8.13;;;;;;;18.67;62.73;101019.94;5054555;28;19921;-77
2022/07/04 00:44:54;;;;;;;17.15;8.13;;;;;;;18.62;62.79;101020.56;5054980;28;20119;-77
2022/07/04 00:47:20;;;;;;;14.05;7.65;;;;;;;18.56;62.67;101005.03;5071043;28;20127;-77
2022/07/04 00:49:46;;;;;;;;;;;;;;;18.67;62.73;101017.22;5054085;28;20115;-77
2022/07/04 00:52:13;;;;;;;18.13;7.38;;;;;;;18.62;62.39;101012.38;5049290;28;19908;-77
2022/07/04 00:54:38;;;;;;;17.98;7.63;;;;;;;18.52;62.72;101015.50;5053505;28;20440;-77
2022/07/04 00:57:05;;;;;;;;;;;;;;;18.49;63.00;101021.34;5037701;28;20036;-77
2022/07/04 00:59:31;;;;;;;17.80;7.85;;;;;;;18.28;63.33;101003.25;5054734;28;19915;-77
2022/07/04 01:01:56;;;;;;;;;;;;;;;18.49;63.15;101015.06;5053796;28;20033;-76
2022/07/04 01:04:21;;;;;;;;;;;;;;;18.51;63.17;101011.09;5070888;28;19916;-78
2022/07/04 01:06:47;;;;;;;13.03;7.47;;;;;;;18.48;63.34;101006.06;5042722;28;19916;-77
2022/07/04 01:09:12;;;;;;;;;;;;;;;18.56;62.97;101011.31;5036729;28;20381;-77
2022/07/04 01:11:38;;;;;;;12.85;8.02;;;;;;;18.49;63.19;101005.00;5054104;28;19912;-78
2022/07/04 01:14:05;;;;;;;;;;;;;;;18.45;63.46;101014.66;5055065;28;20066;-78
2022/07/04 01:16:31;;;;;;;10.73;7.63;;;;;;;18.42;63.78;101017.75;5053546;28;20133;-79
2022/07/04 01:18:58;;;;;;;13.30;7.30;;;;;;;18.48;63.10;101014.22;5030473;28;20194;-77
2022/07/04 01:21:25;;;;;;;11.32;6.82;;;;;;;18.43;63.45;101005.84;5039513;28;20395;-77
2022/07/04 01:23:50;;;;;;;15.02;7.35;;;;;;;18.50;63.18;101011.31;5053455;28;20030;-78
2022/07/04 01:26:16;;;;;;;;;;;;;;;18.63;62.85;101013.22;5053904;28;20044;-76
2022/07/04 01:28:41;;;;;;;;;;;;;;;18.57;63.07;101014.88;5054230;28;19904;-76
2022/07/04 01:31:08;;;;;;;16.07;6.20;;;;;;;18.28;62.79;100986.94;5071486;28;19913;-77
2022/07/04 01:33:38;;;;;;;13.43;6.40;;;;;;;18.48;62.39;101021.56;5033520;28;20349;-77
2022/07/04 01:36:04;;;;;;;8.65;6.13;;;;;;;18.47;61.93;101012.56;5053729;28;20496;-77
2022/07/04 01:38:29;;;;;;;;;;;;;;;18.55;61.75;101019.69;5053215;28;20034;-77
2022/07/04 01:40:55;;;;;;;10.95;5.88;;;;;;;18.49;62.19;101021.34;5071417;28;19915;-78
2022/07/04 01:43:21;;;;;;;9.40;5.82;;;;;;;18.51;61.74;101029.31;5052923;28;20040;-76
2022/07/04 01:45:48;;;;;;;;;;;;;;;18.55;61.77;101033.31;5053916;28;20442;-76
2022/07/04 01:48:14;;;;;;;10.15;6.32;;;;;;;18.51;62.09;101018.41;5049822;28;20012;-76
2022/07/04 01:50:41;;;;;;;;;;;;;;;18.49;62.23;101024.06;5058201;28;20062;-77
2022/07/04 01:53:07;;;;;;;13.48;6.70;;;;;;;18.46;62.07;101019.03;5053105;28;20387;-77
2022/07/04 01:55:32;;;;;;;;;;;;;;;18.44;62.28;101023.00;5025478;28;20135;-78
2022/07/04 01:58:00;;;;;;;16.48;7.68;;;;;;;18.39;62.17;101028.22;5052988;28;19923;-77
2022/07/04 02:03:11;;;;;;;18.48;8.60;;;;;;;18.51;61.95;101023.88;5053809;28;20475;-77
2022/07/04 02:05:39;;;;;;;18.45;8.27;;;;;;;18.43;62.10;101026.78;5053267;28;20400;-78
2022/07/04 02:08:11;;;;;;;12.15;7.63;;;;;;;18.40;62.59;101019.00;5053686;28;20113;-77
2022/07/04 02:10:38;;;;;;;15.20;8.30;;;;;;;18.45;62.21;101016.50;5049991;28;20484;-78
2022/07/04 02:13:03;;;;;;;21.80;8.63;;;;;;;18.56;61.53;101026.81;5036049;28;20043;-76
2022/07/04 02:15:29;;;;;;;;;;;;;;;18.48;62.13;101032.44;5070845;28;20033;-75
2022/07/04 02:17:56;;;;;;;15.25;7.40;;;;;;;18.36;62.18;101026.75;5050440;28;20061;-76
2022/07/04 02:20:21;;;;;;;;;;;;;;;18.41;62.22;101028.88;5033150;28;20143;-76
2022/07/04 02:22:47;;;;;;;13.27;7.30;;;;;;;18.38;62.05;101034.69;5031112;28;20041;-76
2022/07/04 02:25:13;;;;;;;;;;;;;;;18.31;62.33;101040.97;5052413;28;20139;-77
2022/07/04 02:27:40;;;;;;;14.15;6.97;;;;;;;18.16;62.60;101039.44;5052025;28;20006;-76
2022/07/04 02:30:06;;;;;;;13.35;7.55;;;;;;;18.26;62.38;101038.03;5037903;28;20040;-77
2022/07/04 02:32:32;;;;;;;21.33;7.65;;;;;;;18.22;62.09;101031.28;5044055;28;20112;-76
2022/07/04 02:34:58;;;;;;;21.67;8.05;;;;;;;18.32;61.62;101039.91;5036325;28;20033;-75
2022/07/04 02:37:23;;;;;;;;;;;;;;;18.34;61.55;101051.44;5053000;28;20069;-76
2022/07/04 02:39:49;;;;;;;19.00;8.07;;;;;;;18.26;61.66;101045.31;5052054;28;20003;-76
2022/07/04 02:42:14;;;;;;;;;;;;;;;18.24;62.13;101056.44;5052458;28;20412;-77
2022/07/04 02:44:41;;;;;;;19.15;8.52;;;;;;;18.24;62.09;101050.13;5070665;28;20050;-76
2022/07/04 02:47:08;;;;;;;19.10;8.13;;;;;;;18.15;62.18;101044.03;5039563;28;20396;-77
2022/07/04 02:49:34;;;;;;;23.05;8.57;;;;;;;18.18;62.19;101050.94;5036444;28;20054;-76
2022/07/04 02:52:00;;;;;;;;;;;;;;;18.26;61.85;101054.34;5066768;28;20492;-77
2022/07/04 02:54:25;;;;;;;23.73;8.48;;;;;;;18.16;62.17;101048.41;5069057;28;19974;-76
2022/07/04 02:56:51;;;;;;;;;;;;;;;18.22;62.47;101063.94;5052119;28;20049;-77
2022/07/04 02:59:16;;;;;;;;;;;;;;;18.14;62.89;101066.81;5052941;28;20356;-76
2022/07/04 03:01:44;;;;;;;17.03;8.17;;;;;;;18.12;62.89;101077.06;5067710;28;19966;-77
2022/07/04 03:04:09;;;;;;;21.00;8.68;;;;;;;18.10;63.24;101063.69;5052100;28;20354;-78
2022/07/04 03:06:34;;;;;;;;;;;;;;;18.13;63.58;101065.16;5070387;28;20135;-76
2022/07/04 03:09:00;;;;;;;;;;;;;;;18.14;64.07;101072.25;5052405;28;19908;-77
2022/07/04 03:11:27;;;;;;;25.70;8.80;;;;;;;18.03;64.30;101059.25;5050185;28;20317;-77
2022/07/04 03:13:52;;;;;;;20.35;9.00;;;;;;;18.01;65.01;101074.94;5051836;28;20124;-76
2022/07/04 03:16:18;;;;;;;;;;;;;;;18.05;65.20;101073.47;5052186;28;20053;-77
2022/07/04 03:18:43;;;;;;;;;;;;;;;18.16;64.81;101080.25;5052122;28;19957;-76
2022/07/04 03:21:09;;;;;;;21.20;8.68;;;;;;;18.06;65.39;101080.59;5070178;28;19962;-78
2022/07/04 03:23:34;;;;;;;;;;;;;;;18.14;65.06;101075.00;5070374;28;20094;-78
2022/07/04 03:26:00;;;;;;;24.83;9.60;;;;;;;18.03;65.15;101072.84;5051098;28;20012;-79
2022/07/04 03:28:26;;;;;;;19.95;9.32;;;;;;;17.98;65.12;101086.19;5014363;28;20048;-78
2022/07/04 03:30:52;;;;;;;19.30;9.23;;;;;;;18.12;65.09;101085.22;5056534;28;20055;-76
2022/07/04 03:33:18;;;;;;;;;;;;;;;18.11;64.53;101083.56;5074403;28;20067;-77
2022/07/04 03:35:46;;;;;;;16.52;9.23;;;;;;;17.98;64.88;101064.44;5076039;28;19912;-76
2022/07/04 03:38:12;;;;;;;21.23;9.60;;;;;;;18.23;64.59;101075.66;5054546;28;20032;-76
2022/07/04 03:40:38;;;;;;;;;;;;;;;18.30;64.02;101079.25;5076237;28;20114;-76
2022/07/04 03:43:06;;;;;;;23.65;9.35;;;;;;;18.35;63.83;101074.91;5057503;28;19954;-76
2022/07/04 03:45:32;;;;;;;23.65;9.38;;;;;;;18.43;63.47;101064.91;5049964;28;20109;-75
2022/07/04 03:47:58;;;;;;;19.35;9.85;;;;;;;18.49;63.64;101064.06;5057469;28;20606;-76
2022/07/04 03:50:23;;;;;;;;;;;;;;;18.63;63.54;101064.97;5075409;28;20154;-78
2022/07/04 03:52:50;;;;;;;23.83;9.98;;;;;;;18.68;63.70;101060.59;5056904;28;20006;-78
2022/07/04 03:55:18;;;;;;;32.83;10.40;;;;;;;18.79;63.02;101061.06;5075905;28;20059;-77
2022/07/04 03:57:44;;;;;;;;;;;;;;;18.90;62.85;101060.47;5043451;28;20053;-75
2022/07/04 04:00:10;;;;;;;19.23;9.13;;;;;;;18.75;63.17;101064.19;5054935;28;20257;-77
2022/07/04 04:02:36;;;;;;;18.52;8.73;;;;;;;18.97;62.55;101077.66;5051963;28;20453;-79
2022/07/04 04:07:49;;;;;;;13.32;9.27;;;;;;;19.18;61.00;101068.47;5038617;28;20052;-78
2022/07/04 04:10:16;;;;;;;20.50;8.80;;;;;;;19.43;60.26;101065.97;5053381;28;20025;-78
2022/07/04 04:12:44;;;;;;;16.13;9.43;;;;;;;19.75;59.86;101067.03;5020086;28;20460;-79
2022/07/04 04:15:10;;;;;;;20.50;9.52;;;;;;;19.96;59.27;101059.66;5048721;28;20061;-78
2022/07/04 04:17:35;;;;;;;;;;;;;;;20.30;58.62;101074.03;5053247;28;20072;-81
2022/07/04 04:20:01;;;;;;;18.08;9.40;;;;;;;20.45;57.73;101075.47;5053739;28;21574;-79
2022/07/04 04:22:30;;;;;;;20.45;9.20;;;;;;;20.65;57.06;101061.75;5053005;28;20037;-78
2022/07/04 04:24:57;;;;;;;23.88;9.15;;;;;;;20.86;55.93;101068.78;5036218;28;20068;-76
2022/07/04 04:27:23;;;;;;;22.83;9.30;;;;;;;21.10;54.91;101069.06;5052821;28;20160;-77
2022/07/04 04:29:48;;;;;;;24.20;9.50;;;;;;;21.25;53.85;101058.63;5054092;28;20111;-77
2022/07/04 04:32:15;;;;;;;21.80;9.10;;;;;;;21.55;53.04;101068.94;5036059;28;20040;-80
2022/07/04 04:34:44;;;;;;;29.38;9.10;;;;;;;21.70;52.29;101066.72;5037349;28;20056;-77
2022/07/04 04:37:10;;;;;;;23.30;9.25;;;;;;;21.99;51.57;101061.59;5049689;28;20421;-78
2022/07/04 04:39:35;;;;;;;18.95;9.77;;;;;;;22.17;51.03;101065.38;5033760;28;20052;-80
2022/07/04 04:42:01;;;;;;;17.73;8.90;;;;;;;22.39;50.81;101063.06;5051392;28;20021;-77
2022/07/04 04:44:28;;;;;;;20.00;9.85;;;;;;;22.52;50.61;101061.00;5048529;28;20041;-77
2022/07/04 04:46:54;;;;;;;18.45;9.32;;;;;;;22.60;50.34;101054.34;5050843;28;20404;-78
2022/07/04 04:49:25;;;;;;;20.95;9.30;;;;;;;22.78;50.11;101048.00;5032912;28;20126;-77
2022/07/04 04:51:51;;;;;;;22.92;8.68;;;;;;;22.94;49.87;101044.63;5047178;28;20322;-78
2022/07/04 04:54:21;;;;;;;19.65;9.65;;;;;;;23.21;49.83;101037.91;5030259;28;20076;-79
2022/07/04 04:56:50;;;;;;;36.17;10.45;;;;;;;23.37;49.30;101049.03;5033805;28;20049;-77
2022/07/04 04:59:17;;;;;;;21.70;10.02;;;;;;;23.60;48.47;101050.94;5047987;28;20037;-79
2022/07/04 05:01:42;;;;;;;22.73;10.30;;;;;;;23.74;48.28;101053.47;5048801;28;20049;-79
2022/07/04 05:04:09;;;;;;;20.10;9.93;;;;;;;23.98;48.40;101055.16;5047362;28;20567;-76
2022/07/04 05:06:34;;;;;;;16.00;8.40;;;;;;;24.07;47.36;101052.88;5049030;28;20037;-80
2022/07/04 05:09:00;;;;;;;30.08;10.70;;;;;;;24.33;47.75;101059.75;5045852;28;20432;-78
2022/07/04 05:11:27;;;;;;;17.23;9.13;;;;;;;24.64;46.93;101068.63;5047610;28;20033;-78
2022/07/04 05:13:52;;;;;;;25.08;9.43;;;;;;;24.81;46.62;101074.19;5048839;28;20496;-79
2022/07/04 05:16:19;;;;;;;26.75;9.88;;;;;;;25.01;46.53;101068.25;5046472;28;20045;-79
2022/07/04 05:18:45;;;;;;;29.77;11.43;;;;;;;25.23;45.85;101062.88;5045873;28;20198;-81
2022/07/04 05:21:12;;;;;;;26.33;13.07;;;;;;;25.41;45.38;101059.88;5042587;28;20045;-80
2022/07/04 05:23:39;;;;;;;28.15;13.63;;;;;;;25.71;44.75;101066.97;5042679;28;20106;-77
2022/07/04 05:26:04;;;;;;;22.67;12.13;;;;;;;25.77;43.66;101076.97;5048958;28;20032;-77
2022/07/04 05:28:33;;;;;;;23.42;10.63;;;;;;;25.99;43.11;101068.78;5043324;28;20417;-77
2022/07/04 05:31:00;;;;;;;27.10;9.95;;;;;;;26.13;43.68;101068.41;5045449;28;20114;-76
2022/07/04 05:33:25;;;;;;;18.50;8.13;;;;;;;26.28;42.83;101068.63;5045661;28;20045;-78
2022/07/04 05:35:53;;;;;;;20.23;8.50;;;;;;;26.48;42.46;101062.50;5017142;28;20087;-77
2022/07/04 05:38:19;;;;;;;18.85;8.20;;;;;;;26.65;41.72;101068.00;5049628;28;20408;-80
2022/07/04 05:40:45;;;;;;;15.90;8.55;;;;;;;26.79;42.06;101071.19;5045938;28;20051;-78
2022/07/04 05:43:13;;;;;;;10.18;5.20;;;;;;;26.41;44.05;101064.63;5047336;28;20163;-78
2022/07/04 05:45:39;;;;;;;11.85;5.05;;;;;;;26.66;44.23;101073.25;5046453;28;20078;-77
2022/07/04 05:48:05;;;;;;;11.75;4.68;;;;;;;26.77;44.03;101084.41;5046912;28;20220;-77
2022/07/04 05:50:31;;;;;;;14.45;4.40;;;;;;;26.87;43.88;101063.25;5029903;28;20187;-79
2022/07/04 05:52:56;;;;;;;15.23;4.32;;;;;;;27.10;43.44;101078.66;5031055;28;20079;-80
2022/07/04 05:55:23;;;;;;;11.52;5.07;;;;;;;27.11;43.89;101080.34;5031034;28;20476;-80
2022/07/04 05:57:53;;;;;;;9.45;4.50;;;;;;;26.74;44.35;101069.22;5061421;28;20071;-80
2022/07/04 06:00:18;;;;;;;11.75;4.10;;;;;;;27.07;44.29;101078.38;5050926;28;20044;-78
2022/07/04 06:02:47;;;;;;;8.68;4.22;;;;;;;27.14;43.84;101079.81;5066036;28;20130;-79
2022/07/04 06:05:12;;;;;;;12.57;4.43;;;;;;;27.34;43.89;101089.41;5046967;28;20060;-79
2022/07/04 06:07:38;;;;;;;8.50;4.18;;;;;;;27.36;43.85;101081.69;5046463;28;20047;-80
2022/07/04 06:10:07;;;;;;;9.38;4.20;;;;;;;27.35;43.99;101086.38;5068597;28;20025;-79
2022/07/04 06:12:34;;;;;;;7.28;4.05;;;;;;;27.56;43.61;101087.41;5049953;28;20130;-80
2022/07/04 06:14:59;;;;;;;11.70;3.80;;;;;;;27.51;42.74;101078.22;5066561;28;20074;-79
2022/07/04 06:17:27;;;;;;;10.35;3.40;;;;;;;27.58;42.30;101101.78;5012999;28;20044;-81
2022/07/04 06:19:54;;;;;;;15.80;4.25;;;;;;;27.76;42.27;101096.91;5047118;28;20047;-79
2022/07/04 06:22:19;;;;;;;10.13;3.63;;;;;;;27.84;41.94;101102.00;5064117;28;20378;-80
2022/07/04 06:24:45;;;;;;;15.68;3.60;;;;;;;27.74;41.73;101104.63;5009409;28;20470;-80
2022/07/04 06:27:11;;;;;;;10.55;3.88;;;;;;;27.93;41.61;101096.78;5042962;28;20036;-82
2022/07/04 06:29:37;;;;;;;6.72;3.03;;;;;;;27.93;40.89;101096.78;5042252;28;20090;-79
2022/07/04 06:32:06;;;;;;;8.52;3.50;;;;;;;27.81;41.59;101098.88;5066328;28;20531;-77
2022/07/04 06:37:17;;;;;;;7.50;3.30;;;;;;;28.02;41.87;101083.31;5050593;28;20039;-79
2022/07/04 06:39:46;;;;;;;7.45;3.80;;;;;;;28.19;41.35;101083.97;5016117;28;20044;-81
2022/07/04 06:42:12;;;;;;;6.07;3.25;;;;;;;28.39;40.58;101092.34;5048310;28;20039;-82
2022/07/04 06:44:40;;;;;;;6.57;3.03;;;;;;;28.59;40.33;101082.50;5046960;28;20045;-82
2022/07/04 06:47:07;;;;;;;6.78;3.17;;;;;;;28.51;40.52;101080.25;5032963;28;20385;-86
2022/07/04 06:49:33;;;;;;;6.78;3.33;;;;;;;28.03;41.26;101074.75;5066249;28;20036;-83
2022/07/04 06:51:59;;;;;;;10.25;3.10;;;;;;;28.05;41.49;101089.16;5034416;28;20338;-81
2022/07/04 06:54:26;;;;;;;4.95;3.08;;;;;;;27.93;41.89;101082.97;5047016;28;20710;-79
2022/07/04 06:56:54;;;;;;;7.22;3.42;;;;;;;28.14;41.43;101089.44;5052211;28;20128;-81
2022/07/04 06:59:20;;;;;;;8.88;3.22;;;;;;;28.31;41.41;101092.88;5033803;28;20476;-80
2022/07/04 07:01:47;;;;;;;11.40;3.00;;;;;;;28.58;41.09;101080.81;5051011;28;20029;-78
2022/07/04 07:04:16;;;;;;;8.38;3.20;;;;;;;28.83;40.44;101083.66;5013726;28;20032;-81
2022/07/04 07:06:42;;;;;;;9.60;2.90;;;;;;;28.99;39.96;101084.53;5060475;28;20116;-82
2022/07/04 07:09:09;;;;;;;13.45;2.83;;;;;;;29.39;39.63;101101.50;5064479;28;20091;-82
2022/07/04 07:11:37;;;;;;;13.43;2.90;;;;;;;29.17;39.56;101099.84;5067277;28;20115;-81
2022/07/04 07:14:04;;;;;;;7.30;3.38;;;;;;;29.59;39.02;101100.66;5045484;28;20566;-81
2022/07/04 07:16:34;;;;;;;5.32;2.88;;;;;;;29.79;38.85;101097.09;5064776;28;20029;-85
2022/07/04 07:19:01;;;;;;;7.10;3.08;;;;;;;30.00;38.99;101090.38;5050468;28;20040;-82
2022/07/04 07:21:30;;;;;;;7.05;3.42;;;;;;;30.06;38.37;101086.50;5063737;28;20036;-80
2022/07/04 07:23:57;;;;;;;6.32;2.90;;;;;;;29.65;39.07;101091.25;5052127;28;20141;-80
2022/07/04 07:26:27;;;;;;;8.43;3.17;;;;;;;29.75;39.51;101098.75;5017795;28;20420;-82
2022/07/04 07:28:53;;;;;;;7.60;3.33;;;;;;;29.90;39.16;101103.41;5040613;28;20037;-79
2022/07/04 07:31:19;;;;;;;8.60;3.50;;;;;;;30.04;39.19;101079.56;5049111;28;20032;-83
2022/07/04 07:33:46;;;;;;;10.57;3.17;;;;;;;30.24;38.88;101111.94;5044293;28;20039;-82
2022/07/04 07:36:18;;;;;;;5.50;2.85;;;;;;;30.37;38.26;101096.66;5050038;28;20036;-83
2022/07/04 07:38:46;;;;;;;7.53;3.03;;;;;;;30.22;38.58;101091.97;5064679;28;20104;-82
2022/07/04 07:41:12;;;;;;;6.50;3.00;;;;;;;30.45;38.54;101094.13;5061328;28;20048;-82
2022/07/04 07:43:40;;;;;;;8.00;2.85;;;;;;;30.08;38.87;101084.25;5035474;28;20224;-82
2022/07/04 07:46:12;;;;;;;5.30;2.80;;;;;;;29.82;39.58;101089.03;5009131;28;20094;-82
2022/07/04 07:48:37;;;;;;;4.78;2.95;;;;;;;29.99;39.22;101072.09;5030902;28;20040;-84
2022/07/04 07:51:03;;;;;;;7.50;3.03;;;;;;;30.32;39.01;101089.22;5035234;28;20087;-83
2022/07/04 07:53:29;;;;;;;10.95;3.22;;;;;;;30.60;38.28;101084.94;5046640;28;20040;-82
2022/07/04 07:55:54;;;;;;;6.32;3.08;;;;;;;30.33;38.82;101098.38;5036257;28;20215;-82
2022/07/04 07:58:24;;;;;;;5.35;3.30;;;;;;;30.01;39.04;101082.91;5045825;28;20051;-82
2022/07/04 08:00:51;;;;;;;8.35;3.03;;;;;;;29.65;40.31;101078.22;5066185;28;20230;-84
2022/07/04 08:06:01;;;;;;;6.43;2.67;;;;;;;29.96;39.48;101075.41;5066852;28;20096;-82
2022/07/04 08:08:27;;;;;;;5.85;2.88;;;;;;;30.03;38.78;101075.97;5040817;28;20120;-82
2022/07/04 08:10:53;;;;;;;6.47;3.13;;;;;;;30.41;38.85;101087.50;5049600;28;20037;-81
2022/07/04 08:13:21;;;;;;;7.28;2.97;;;;;;;30.04;38.71;101085.09;5030397;28;20067;-81
2022/07/04 08:15:48;;;;;;;10.43;2.92;;;;;;;30.44;38.00;101072.25;5060931;28;20028;-85
2022/07/04 08:18:18;;;;;;;8.77;3.08;;;;;;;30.90;36.99;101086.72;5066413;28;20032;-91
2022/07/04 08:20:45;;;;;;;4.57;2.40;;;;;;;30.52;37.09;101079.16;5060328;28;20110;-87
2022/07/04 08:23:12;;;;;;;9.68;2.78;;;;;;;30.70;36.91;101092.38;5054764;28;20440;-85
2022/07/04 08:25:38;;;;;;;8.13;2.67;;;;;;;30.71;35.89;101082.91;5052004;28;20032;-89
2022/07/04 08:28:09;;;;;;;8.15;2.55;;;;;;;30.63;32.90;101075.22;5038233;28;20048;-88
2022/07/04 08:30:38;;;;;;;8.65;2.63;;;;;;;31.16;33.28;101094.06;5052404;28;20041;-88
2022/07/04 08:33:04;;;;;;;7.88;3.20;;;;;;;31.51;33.35;101073.50;5060053;28;20100;-89
2022/07/04 08:35:36;;;;;;;3.58;2.53;;;;;;;31.86;32.67;101068.72;5051571;28;20037;-87
2022/07/04 08:38:07;;;;;;;5.95;2.40;;;;;;;31.75;30.44;101066.06;5068699;28;20036;-91
2022/07/04 08:40:47;;;;;;;4.82;2.50;;;;;;;31.60;30.72;101077.31;5079921;28;20044;-86
2022/07/04 08:43:16;;;;;;;3.60;1.90;;;;;;;32.11;26.67;101065.69;5070236;28;20065;-85
2022/07/04 08:45:56;;;;;;;6.38;2.30;;;;;;;32.52;25.59;101081.94;5062646;28;20028;-90
2022/07/04 08:48:27;;;;;;;3.53;2.58;;;;;;;32.91;23.55;101066.88;5026117;28;20052;-91
2022/07/04 08:51:16;;;;;;;6.45;2.30;;;;;;;33.10;25.10;101074.44;5073118;28;20040;-93
2022/07/04 08:53:56;;;;;;;6.55;2.10;;;;;;;33.25;25.80;101057.47;5076652;28;20037;-91
2022/07/04 08:59:08;;;;;;;6.30;2.10;;;;;;;34.10;25.20;101058.19;5056544;28;20043;-85
2022/07/04 09:01:39;;;;;;;4.55;2.70;;;;;;;33.95;24.83;101066.81;5038437;28;20039;-82
2022/07/04 09:04:06;;;;;;;6.97;1.92;;;;;;;33.97;24.53;101067.34;5043311;28;20024;-83
2022/07/04 09:06:31;;;;;;;7.72;2.10;;;;;;;34.13;24.43;101073.47;5029536;28;20523;-85
2022/07/04 09:08:57;;;;;;;5.55;2.20;;;;;;;34.53;25.11;101063.41;5031001;28;20103;-82
2022/07/04 09:11:22;;;;;;;5.82;1.83;;;;;;;35.34;21.01;101065.47;5050956;28;20067;-84
2022/07/04 09:13:48;;;;;;;5.50;1.60;;;;;;;35.66;17.84;101069.13;5069250;28;20116;-81
2022/07/04 09:16:14;;;;;;;5.57;1.88;;;;;;;35.18;20.55;101069.78;5053460;28;20078;-83
2022/07/04 09:18:39;;;;;;;3.40;1.40;;;;;;;35.73;18.52;101058.34;5050614;28;20420;-83
2022/07/04 09:21:08;;;;;;;3.08;1.50;;;;;;;35.89;16.85;101056.75;5048674;28;20033;-82
2022/07/04 09:23:43;;;;;;;4.90;1.70;;;;;;;36.06;18.38;101071.97;5037147;28;20432;-81
2022/07/04 09:26:19;;;;;;;5.47;2.70;;;;;;;36.57;19.26;101053.66;5021168;28;20567;-81
2022/07/04 09:28:58;;;;;;;3.85;2.08;;;;;;;36.55;19.96;101065.19;5042607;28;20408;-82
2022/07/04 09:31:25;;;;;;;3.92;2.05;;;;;;;36.56;20.19;101060.41;5053939;28;20454;-83
2022/07/04 09:33:59;;;;;;;3.97;2.13;;;;;;;36.45;20.14;101057.09;5036784;28;20043;-83
2022/07/04 09:36:26;;;;;;;6.95;2.30;;;;;;;36.53;22.15;101063.88;5053161;28;20383;-85
2022/07/04 09:39:14;;;;;;;5.00;2.17;;;;;;;36.71;22.05;101065.59;5053337;28;20028;-82
2022/07/04 09:41:52;;;;;;;5.05;2.15;;;;;;;37.66;21.99;101061.06;5070100;28;20036;-81
2022/07/04 09:44:21;;;;;;;3.33;2.08;;;;;;;38.20;19.44;101060.53;5028297;28;20025;-83
2022/07/04 09:46:46;;;;;;;8.20;1.98;;;;;;;38.74;20.23;101060.66;5038665;28;20067;-83
2022/07/04 09:49:12;;;;;;;7.30;2.20;;;;;;;39.63;19.13;101071.59;5053010;28;20145;-81
2022/07/04 09:51:45;;;;;;;5.20;1.83;;;;;;;39.21;19.42;101063.25;5033188;28;20503;-83
2022/07/04 09:54:22;;;;;;;4.68;2.00;;;;;;;39.51;19.62;101060.34;5067048;28;20024;-84
2022/07/04 09:56:54;;;;;;;4.70;2.50;;;;;;;39.97;19.13;101061.13;5069997;28;20032;-83
2022/07/04 09:59:20;;;;;;;4.82;2.38;;;;;;;40.48;17.90;101053.13;5052966;28;20033;-83
2022/07/04 10:01:46;;;;;;;4.82;2.30;;;;;;;40.73;17.53;101058.72;5035927;28;20056;-83
2022/07/04 10:04:13;;;;;;;3.17;1.67;;;;;;;39.49;15.35;101062.66;5035631;28;20041;-81
2022/07/04 10:06:39;;;;;;;4.35;1.98;;;;;;;39.45;17.44;101059.75;5037079;28;20075;-85
2022/07/04 10:09:16;;;;;;;6.00;2.00;;;;;;;39.04;19.07;101069.06;5052747;28;20025;-82
2022/07/04 10:11:44;;;;;;;5.43;1.90;;;;;;;38.87;18.54;101064.38;5036275;28;20068;-85
2022/07/04 10:14:11;;;;;;;4.70;2.00;;;;;;;40.19;17.83;101064.66;5041398;28;20102;-84
2022/07/04 10:16:38;;;;;;;4.50;2.10;;;;;;;38.36;19.91;101055.97;5023788;28;20116;-85
2022/07/04 10:19:04;;;;;;;5.47;1.85;;;;;;;39.01;17.60;101072.56;5036976;28;20495;-87
2022/07/04 10:21:30;;;;;;;5.53;1.65;;;;;;;37.78;16.12;101063.16;5053590;28;20058;-85
2022/07/04 10:23:55;;;;;;;5.93;2.00;;;;;;;38.84;18.05;101068.72;5053852;28;20503;-83
2022/07/04 10:26:22;;;;;;;4.82;2.00;;;;;;;39.01;18.06;101075.38;5035620;28;20040;-87
2022/07/04 10:28:49;;;;;;;7.57;2.28;;;;;;;38.88;19.14;101060.41;5052890;28;20081;-85
2022/07/04 10:31:14;;;;;;;3.95;2.30;;;;;;;39.30;16.85;101070.78;5052226;28;20037;-86
2022/07/04 10:33:40;;;;;;;3.05;1.35;;;;;;;38.21;16.46;101045.31;5053220;28;20044;-84
2022/07/04 10:36:22;;;;;;;3.58;1.60;;;;;;;38.18;19.08;101065.66;5022820;28;20487;-84
2022/07/04 10:38:53;;;;;;;3.70;2.10;;;;;;;38.64;19.01;101066.72;5032142;28;20064;-85
2022/07/04 10:41:23;;;;;;;6.35;1.90;;;;;;;38.19;18.82;101062.50;5009319;28;20048;-87
2022/07/04 10:43:48;;;;;;;3.90;1.92;;;;;;;37.36;20.09;101057.31;5026994;28;20039;-85
2022/07/04 10:46:14;;;;;;;5.75;1.67;;;;;;;36.97;18.39;101062.78;5071486;28;20036;-86
2022/07/04 10:49:14;;;;;;;4.05;2.00;;;;;;;36.30;21.27;101069.59;5070494;28;20480;-86
2022/07/04 10:51:52;;;;;;;5.68;1.70;;;;;;;35.37;21.01;101070.41;5069937;28;20087;-86
2022/07/04 10:54:19;;;;;;;6.82;1.90;;;;;;;34.85;22.24;101078.38;5051550;28;20613;-88
2022/07/04 10:56:54;;;;;;;5.22;1.73;;;;;;;34.35;22.94;101069.94;5052325;28;20045;-87
2022/07/04 10:59:29;;;;;;;7.00;1.85;;;;;;;34.24;23.62;101058.19;5050199;28;20120;-79
2022/07/04 11:02:07;;;;;;;5.78;1.83;;;;;;;32.96;21.93;101057.63;5014394;28;20032;-83
2022/07/04 11:05:08;;;;;;;5.88;1.80;;;;;;;33.20;21.91;101055.59;5071049;28;20032;-82
2022/07/04 11:07:33;;;;;;;5.88;2.13;;;;;;;32.16;26.42;101054.50;5037664;28;20102;-82
2022/07/04 11:10:11;;;;;;;5.85;1.90;;;;;;;32.64;26.51;101045.31;5070289;28;20028;-81
2022/07/04 11:12:59;;;;;;;4.57;2.10;;;;;;;32.93;27.92;101047.09;5068799;28;20044;-84
2022/07/04 11:15:24;;;;;;;4.38;1.90;;;;;;;32.68;28.20;101043.56;5051530;28;20031;-84
2022/07/04 11:17:51;;;;;;;8.50;2.13;;;;;;;32.43;25.86;101024.41;5051002;28;20128;-81
2022/07/04 11:20:17;;;;;;;8.93;2.50;;;;;;;32.31;27.90;101030.41;5069550;28;20396;-82
2022/07/04 11:22:43;;;;;;;5.53;2.55;;;;;;;31.76;29.66;101037.13;5033666;28;20067;-83
2022/07/04 11:25:11;;;;;;;6.55;2.10;;;;;;;31.67;29.68;101038.06;5034611;28;20067;-80
2022/07/04 11:27:37;;;;;;;13.55;2.58;;;;;;;31.16;32.49;101028.22;5051541;28;20094;-83
2022/07/04 11:30:03;;;;;;;7.25;2.10;;;;;;;31.67;30.75;101038.91;5034504;28;20135;-84
2022/07/04 11:32:34;;;;;;;4.68;2.20;;;;;;;31.46;29.50;101032.72;5069425;28;20043;-84
2022/07/04 11:35:04;;;;;;;4.93;2.03;;;;;;;31.00;30.46;101033.09;5034388;28;20033;-85
2022/07/04 11:37:29;;;;;;;5.22;2.03;;;;;;;31.16;30.77;101041.28;5032315;28;20032;-84
2022/07/04 11:45:26;;;;;;;;;;;;;;;31.23;32.31;101034.28;5041017;28;20097;-83
2022/07/04 11:47:52;;;;;;;5.82;2.60;;;;;;;30.94;32.60;101033.41;5053100;28;19919;-81
2022/07/04 11:50:18;;;;;;;7.03;1.95;;;;;;;30.43;31.30;101038.13;5036173;28;20040;-81
2022/07/04 11:52:53;;;;;;;8.63;2.08;;;;;;;30.36;31.15;101037.59;5056110;28;20025;-84